Terminal Aerodrome Forecast
Issued by NWS Wilmington, OH

Current Version | Previous Version | Graphics & Text | Print | Product List | Glossary On
Versions: 1 2 3 4 5 6 7 8 9 10 11 12 13 14 15 16 17 18 19 20 21 22 23 24 25 26 27 28 29 30 31 32 33
858
FTUS41 KILN 260934 AAB
TAFCVG
TAF AMD
KCVG 260934Z 2610/2712 18004KT P6SM SKC
     FM261100 26008KT P6SM SCT050 BKN120
     FM261400 28012G18KT P6SM -SHRA SCT025 BKN035
      TEMPO 2614/2617 5SM -SHRA BKN025
     FM261700 28012G18KT P6SM BKN025
     FM262000 27010KT P6SM SKC
     FM270000 24004KT P6SM SKC=

USA.gov is the U.S. government's official web portal to all federal, state and local government web resources and services.